Latest Weather Observations for Collie East

IDW60801

Issued at 5:04 pm WST Thursday 19 October 2017 (issued every 30 minutes, with the page automatically refreshed every 10 minutes)

About weather observations | Map of weather stations | Latest weather observations for WA | Other Formats
Station Details ID: 009994 Name: COLLIE EAST Lat: -33.36 Lon: 116.17 Height: 200.0 m
Data from the previous 72 hours. | See also: Recent months at Collie East
Date/Time
WST
Temp
°C
App
Temp
°C
Dew
Point
°C
Rel
Hum
%
Delta-T
°C
Wind Press
QNH
hPa
Press
MSL
hPa
Rain since
9am
mm
Dir  Spd
km/h
Gust
km/h
Spd
kts
Gust
kts
19/05:00pm 21.0 17.2 4.1 33 8.2 ESE 13 19 7 10 - - 0.0
19/04:30pm 21.5 18.2 4.6 33 8.3 E 11 19 6 10 - - 0.0
19/04:00pm 21.2 17.9 4.7 34 8.1 E 11 17 6 9 - - 0.0
19/03:30pm 21.1 17.0 4.2 33 8.3 E 15 26 8 14 - - 0.0
19/03:00pm 21.4 18.0 5.7 36 7.9 E 13 20 7 11 - - 0.0
19/02:30pm 20.5 17.6 4.9 36 7.7 ESE 9 20 5 11 - - 0.0
19/02:00pm 20.6 17.2 5.8 38 7.4 ENE 13 22 7 12 - - 0.0
19/01:30pm 21.0 18.0 6.2 38 7.5 ESE 11 19 6 10 - - 0.0
19/01:00pm 19.5 15.9 4.8 38 7.2 E 13 24 7 13 - - 0.0
19/12:30pm 19.3 15.9 6.1 42 6.6 SE 13 24 7 13 - - 0.0
19/12:00pm 18.3 14.5 5.8 44 6.2 E 15 22 8 12 - - 0.0
19/11:30am 18.2 15.3 6.7 47 5.8 E 11 22 6 12 - - 0.0
19/11:00am 17.4 14.3 5.7 46 5.7 E 11 19 6 10 - - 0.0
19/10:30am 17.0 13.7 6.2 49 5.3 E 13 20 7 11 - - 0.0
19/10:00am 16.4 13.4 6.0 50 5.1 E 11 22 6 12 - - 0.0
19/09:30am 14.9 11.3 4.9 51 4.7 ESE 13 20 7 11 - - 0.0
19/09:00am 14.4 11.2 5.2 54 4.4 ESE 11 19 6 10 - - 0.0
19/08:30am 13.5 11.0 6.4 62 3.4 E 9 13 5 7 - - 0.0
19/08:00am 9.3 8.2 6.9 85 1.1 SW 2 7 1 4 - - 0.0
19/07:30am 6.3 5.2 5.3 93 0.4 CALM 0 0 0 0 - - 0.0
19/07:00am 4.2 2.8 3.3 94 0.4 CALM 0 0 0 0 - - 0.0
19/06:30am 2.1 0.3 1.1 93 0.4 CALM 0 0 0 0 - - 0.0
19/06:00am 1.2 -0.8 0.2 93 0.4 CALM 0 0 0 0 - - 0.0
19/05:30am 0.7 -1.3 -0.4 92 0.4 CALM 0 0 0 0 - - 0.0
19/05:00am 1.1 -0.9 0.1 93 0.4 CALM 0 0 0 0 - - 0.0
19/04:30am 1.4 -0.5 0.4 93 0.4 CALM 0 0 0 0 - - 0.0
19/04:00am 1.7 -0.2 0.5 92 0.5 CALM 0 0 0 0 - - 0.0
19/03:30am 1.9 0.0 0.7 92 0.5 CALM 0 0 0 0 - - 0.0
19/03:00am 2.4 0.6 1.2 92 0.5 CALM 0 0 0 0 - - 0.0
19/02:30am 2.6 0.8 1.4 92 0.5 CALM 0 0 0 0 - - 0.0
19/02:00am 2.9 1.2 1.7 92 0.5 CALM 0 0 0 0 - - 0.0
19/01:30am 3.4 1.8 2.2 92 0.5 CALM 0 0 0 0 - - 0.0
19/01:00am 3.9 2.3 2.7 92 0.5 CALM 0 0 0 0 - - 0.0
19/12:30am 4.1 2.6 2.8 91 0.5 CALM 0 0 0 0 - - 0.0
19/12:00am 4.6 3.2 3.3 91 0.5 CALM 0 0 0 0 - - 0.0
 
Date/Time
WST
Temp
°C
App
Temp
°C
Dew
Point
°C
Rel
Hum
%
Delta-T
°C
Wind Press
QNH
hPa
Press
MSL
hPa
Rain since
9am
mm
Dir  Spd
km/h
Gust
km/h
Spd
kts
Gust
kts
18/11:30pm 4.8 3.4 3.3 90 0.6 CALM 0 0 0 0 - - 0.0
18/11:00pm 5.6 4.3 3.9 89 0.7 CALM 0 0 0 0 - - 0.0
18/10:30pm 6.2 5.0 4.4 88 0.8 CALM 0 0 0 0 - - 0.0
18/10:00pm 6.9 5.8 4.9 87 0.9 CALM 0 0 0 0 - - 0.0
18/09:30pm 7.7 6.5 4.8 82 1.3 CALM 0 0 0 0 - - 0.0
18/09:00pm 8.7 7.6 5.1 78 1.6 CALM 0 0 0 0 - - 0.0
18/08:30pm 9.8 8.0 5.6 75 1.9 SSW 4 7 2 4 - - 0.0
18/08:00pm 11.6 9.9 5.7 67 2.8 SSW 4 7 2 4 - - 0.0
18/07:30pm 12.8 10.7 5.9 63 3.3 SSW 6 13 3 7 - - 0.0
18/07:00pm 13.3 11.1 6.2 62 3.4 SW 7 13 4 7 - - 0.0
18/06:30pm 13.7 11.8 6.6 62 3.5 WSW 6 7 3 4 - - 0.0
18/06:00pm 14.1 11.9 6.2 59 3.8 WSW 7 11 4 6 - - 0.0
18/05:30pm 14.4 11.5 6.3 58 3.9 WSW 11 17 6 9 - - 0.0
18/05:00pm 14.8 12.2 6.1 56 4.2 WSW 9 20 5 11 - - 0.0
18/04:30pm 15.9 13.2 5.5 50 5.0 WSW 9 17 5 9 - - 0.0
18/04:00pm 15.2 12.5 5.7 53 4.6 WSW 9 20 5 11 - - 0.0
18/03:30pm 15.5 12.8 5.4 51 4.9 SW 9 19 5 10 - - 0.0
18/03:00pm 16.5 13.9 6.1 50 5.1 SSW 9 19 5 10 - - 0.0
18/02:30pm 15.5 12.2 4.5 48 5.2 W 11 20 6 11 - - 0.0
18/02:00pm 16.4 13.4 6.2 51 5.0 W 11 17 6 9 - - 0.0
18/01:30pm 16.3 12.6 4.7 46 5.5 W 13 26 7 14 - - 0.0
18/01:00pm 16.7 12.9 5.6 48 5.4 WNW 15 26 8 14 - - 0.0
18/12:30pm 15.7 11.9 5.9 52 4.8 WSW 15 37 8 20 - - 0.0
18/12:00pm 15.3 12.4 6.3 55 4.4 WSW 11 24 6 13 - - 0.0
18/11:30am 15.6 12.2 6.1 53 4.6 W 13 22 7 12 - - 0.0
18/11:00am 14.4 10.8 5.2 54 4.4 W 13 32 7 17 - - 0.0
18/10:30am 15.3 11.8 5.5 52 4.7 WSW 13 26 7 14 - - 0.0
18/10:00am 13.8 11.4 6.9 63 3.4 WSW 9 19 5 10 - - 0.0
18/09:30am 14.0 10.9 5.6 57 4.0 W 11 19 6 10 - - 0.0
18/09:00am 13.4 9.4 4.8 56 4.0 WSW 15 28 8 15 - - 6.8
18/08:30am 13.8 11.5 7.6 66 3.1 WSW 9 22 5 12 - - 6.8
18/08:00am 12.3 9.9 6.8 69 2.7 W 9 19 5 10 - - 6.8
18/07:30am 9.7 8.9 8.1 90 0.8 WSW 2 7 1 4 - - 6.8
18/07:00am 8.2 6.8 7.3 94 0.4 N 4 7 2 4 - - 6.8
18/06:30am 6.8 5.9 5.9 94 0.4 CALM 0 0 0 0 - - 6.6
18/06:00am 5.2 3.9 4.2 93 0.4 CALM 0 0 0 0 - - 6.6
18/05:30am 5.3 4.0 4.3 93 0.4 CALM 0 0 0 0 - - 6.6
18/05:00am 5.3 4.0 4.1 92 0.5 CALM 0 0 0 0 - - 6.6
18/04:30am 5.7 4.5 4.5 92 0.5 CALM 0 0 0 0 - - 6.6
18/04:00am 6.3 5.2 5.1 92 0.5 CALM 0 0 0 0 - - 6.6
18/03:30am 6.8 5.8 5.4 91 0.6 CALM 0 7 0 4 - - 6.6
18/03:00am 7.5 6.2 6.1 91 0.6 WNW 2 7 1 4 - - 6.6
18/02:30am 7.6 5.9 6.1 90 0.7 NNW 4 7 2 4 - - 6.6
18/02:00am 8.0 6.8 6.5 90 0.7 WNW 2 6 1 3 - - 6.6
18/01:30am 8.1 6.5 6.4 89 0.8 WNW 4 7 2 4 - - 6.6
18/01:00am 8.4 6.8 6.4 87 0.9 WNW 4 7 2 4 - - 6.6
18/12:30am 9.0 7.1 6.8 86 1.0 WNW 6 9 3 5 - - 6.6
18/12:00am 9.3 7.2 6.6 83 1.3 WNW 7 11 4 6 - - 6.6
 
Date/Time
WST
Temp
°C
App
Temp
°C
Dew
Point
°C
Rel
Hum
%
Delta-T
°C
Wind Press
QNH
hPa
Press
MSL
hPa
Rain since
9am
mm
Dir  Spd
km/h
Gust
km/h
Spd
kts
Gust
kts
17/11:30pm 9.6 7.7 6.9 83 1.3 W 6 9 3 5 - - 6.6
17/11:00pm 10.4 8.1 7.5 82 1.4 W 9 15 5 8 - - 6.6
17/10:30pm 10.7 9.0 8.5 86 1.1 WNW 7 13 4 7 - - 6.6
17/10:00pm 11.1 9.2 9.2 88 1.0 W 9 22 5 12 - - 6.6
17/09:30pm 11.2 9.4 9.5 89 0.9 WSW 9 17 5 9 - - 6.6
17/09:00pm 11.3 8.8 9.6 89 0.9 WSW 13 26 7 14 - - 6.6
17/08:30pm 12.3 9.3 10.5 89 0.9 W 17 33 9 18 - - 6.2
17/08:00pm 12.9 11.1 10.8 87 1.1 W 11 28 6 15 - - 5.2
17/07:30pm 13.6 11.7 11.7 88 1.0 WNW 13 20 7 11 - - 4.6
17/07:00pm 13.5 10.4 11.7 89 1.0 NW 19 32 10 17 - - 4.6
17/06:30pm 13.5 10.4 11.7 89 1.0 NW 19 37 10 20 - - 2.6
17/06:00pm 13.8 10.7 11.5 86 1.2 NW 19 30 10 16 - - 1.0
17/05:30pm 13.6 10.9 11.7 88 1.0 NW 17 30 9 16 - - 1.0
17/05:00pm 14.6 10.7 10.8 78 2.0 NW 22 39 12 21 - - 0.4
17/04:30pm 15.5 11.9 10.5 72 2.7 NNW 20 32 11 17 - - 0.4
17/04:00pm 16.2 12.3 9.4 64 3.6 WNW 20 41 11 22 - - 0.4
17/03:30pm 16.1 13.5 10.6 70 2.9 WNW 15 33 8 18 - - 0.4
17/03:00pm 15.5 11.9 10.5 72 2.7 WNW 20 44 11 24 - - 0.2
17/02:30pm 17.2 14.2 10.8 66 3.5 NW 17 28 9 15 - - 0.2
17/02:00pm 16.5 12.5 9.2 62 3.8 NW 20 41 11 22 - - 0.2
17/01:30pm 16.8 12.8 8.2 57 4.4 WNW 19 43 10 23 - - 0.0
17/01:00pm 15.7 12.0 10.0 69 3.0 NW 20 37 11 20 - - 0.0
17/12:30pm 14.0 10.7 9.6 75 2.3 WNW 17 32 9 17 - - 0.0
17/12:00pm 16.0 11.5 7.0 55 4.5 NW 20 46 11 25 - - 0.0
17/11:30am 15.8 10.5 7.0 56 4.4 NW 24 39 13 21 - - 0.0
17/11:00am 15.3 12.2 8.8 65 3.3 WNW 15 28 8 15 - - 0.0
17/10:30am 16.2 13.5 8.9 62 3.8 WNW 13 26 7 14 - - 0.0
17/10:00am 14.2 11.7 9.6 74 2.4 NW 13 20 7 11 - - 0.0
17/09:30am 13.9 11.6 10.3 79 1.9 NW 13 20 7 11 - - 0.0
17/09:00am 13.6 11.5 9.8 78 2.0 WNW 11 15 6 8 - - 15.8
17/08:30am 13.8 12.5 11.3 85 1.3 WNW 9 17 5 9 - - 15.8
17/08:00am 12.9 11.6 11.1 89 1.0 WNW 9 20 5 11 - - 15.8
17/07:30am 12.6 11.2 11.0 90 0.8 WNW 9 15 5 8 - - 15.8
17/07:00am 12.6 11.6 11.0 90 0.8 WNW 7 13 4 7 - - 15.6
17/06:30am 12.0 11.0 10.4 90 0.8 W 6 11 3 6 - - 15.6
17/06:00am 12.1 11.2 10.5 90 0.8 WNW 6 9 3 5 - - 15.4
17/05:30am 11.9 10.8 10.5 91 0.7 W 7 13 4 7 - - 15.4
17/05:00am 11.7 10.1 10.3 91 0.7 NW 9 15 5 8 - - 15.2
17/04:30am 11.6 10.6 10.2 91 0.7 NW 6 9 3 5 - - 15.2
17/04:00am 11.3 9.9 9.7 90 0.8 NNW 7 9 4 5 - - 15.0
17/03:30am 11.1 9.9 9.4 89 0.9 NW 6 11 3 6 - - 15.0
17/03:00am 11.6 10.2 9.7 88 1.0 WNW 7 13 4 7 - - 15.0
17/02:30am 11.7 10.6 9.9 89 0.9 WNW 6 11 3 6 - - 15.0
17/02:00am 11.9 10.2 10.0 88 1.0 W 9 15 5 8 - - 15.0
17/01:30am 12.1 10.2 10.5 90 0.8 WNW 11 20 6 11 - - 14.8
17/01:00am 12.0 10.4 10.2 89 0.9 WNW 9 17 5 9 - - 14.8
17/12:30am 12.8 10.3 9.6 81 1.6 WNW 13 26 7 14 - - 14.4
17/12:00am 12.5 10.3 9.3 81 1.6 WNW 11 20 6 11 - - 14.4
 
Date/Time
WST
Temp
°C
App
Temp
°C
Dew
Point
°C
Rel
Hum
%
Delta-T
°C
Wind Press
QNH
hPa
Press
MSL
hPa
Rain since
9am
mm
Dir  Spd
km/h
Gust
km/h
Spd
kts
Gust
kts
16/11:30pm 12.5 10.3 9.5 82 1.5 WNW 11 22 6 12 - - 14.4
16/11:00pm 12.2 10.4 9.6 84 1.3 WNW 9 20 5 11 - - 14.4
16/10:30pm 12.5 9.3 9.9 84 1.3 WNW 17 32 9 17 - - 14.4
16/10:00pm 12.9 10.4 11.1 89 1.0 WNW 15 30 8 16 - - 14.4
16/09:30pm 13.5 9.9 10.5 82 1.6 WNW 20 41 11 22 - - 12.0
16/09:00pm 13.3 10.0 10.8 85 1.3 NW 19 39 10 21 - - 12.0
16/08:30pm 13.0 9.6 11.2 89 1.0 NW 20 35 11 19 - - 12.0
16/08:00pm 11.2 4.4 9.1 87 1.1 NW 35 63 19 34 - - 11.8
16/07:30pm 13.0 7.9 10.7 86 1.2 NNW 28 46 15 25 - - 6.2
16/07:24pm 12.8 7.7 10.5 86 1.2 NNW 28 50 15 27 - - 6.2
16/07:00pm 13.2 9.2 10.4 83 1.5 NNW 22 39 12 21 - - 5.4
16/06:32pm 13.1 7.9 10.1 82 1.6 NNW 28 46 15 25 - - 5.4
16/06:30pm 12.9 8.4 10.1 83 1.5 NNW 24 46 13 25 - - 5.4
16/06:00pm 12.5 8.6 9.5 82 1.5 NNW 20 35 11 19 - - 4.8
16/05:37pm 13.2 7.6 8.9 75 2.2 NW 28 54 15 29 - - 3.8
16/05:30pm 13.1 8.4 9.4 78 1.9 NW 24 54 13 29 - - 3.8

Other Formats:

Comma delimited format used in spreadsheet applications
http://www.bom.gov.au/fwo/IDW60801/IDW60801.95621.axf

JavaScript Object Notation format (JSON) in row-major order
http://www.bom.gov.au/fwo/IDW60801/IDW60801.95621.json